sensor_id;sensor_type;location;lat;lon;timestamp;P1;durP1;ratioP1;P2;durP2;ratioP2
6725;SDS011;3400;48.506;11.692;2023-03-23T00:00:36;4.47;;;3.67;;
6725;SDS011;3400;48.506;11.692;2023-03-23T00:03:04;5.03;;;3.40;;
6725;SDS011;3400;48.506;11.692;2023-03-23T00:05:32;6.33;;;4.03;;
6725;SDS011;3400;48.506;11.692;2023-03-23T00:08:02;5.43;;;3.90;;
6725;SDS011;3400;48.506;11.692;2023-03-23T00:10:30;4.23;;;3.80;;
6725;SDS011;3400;48.506;11.692;2023-03-23T00:13:00;5.80;;;3.93;;
6725;SDS011;3400;48.506;11.692;2023-03-23T00:15:28;6.87;;;3.33;;
6725;SDS011;3400;48.506;11.692;2023-03-23T00:17:58;4.60;;;4.17;;
6725;SDS011;3400;48.506;11.692;2023-03-23T00:20:30;5.67;;;3.80;;
6725;SDS011;3400;48.506;11.692;2023-03-23T00:23:06;5.77;;;3.77;;
6725;SDS011;3400;48.506;11.692;2023-03-23T00:25:34;5.43;;;4.13;;
6725;SDS011;3400;48.506;11.692;2023-03-23T00:28:03;4.00;;;3.60;;
6725;SDS011;3400;48.506;11.692;2023-03-23T00:30:31;4.13;;;3.83;;
6725;SDS011;3400;48.506;11.692;2023-03-23T00:32:59;4.23;;;3.83;;
6725;SDS011;3400;48.506;11.692;2023-03-23T00:35:27;3.90;;;3.60;;
6725;SDS011;3400;48.506;11.692;2023-03-23T00:37:56;6.23;;;3.77;;
6725;SDS011;3400;48.506;11.692;2023-03-23T00:40:26;5.83;;;3.90;;
6725;SDS011;3400;48.506;11.692;2023-03-23T00:42:53;4.50;;;3.90;;
6725;SDS011;3400;48.506;11.692;2023-03-23T00:45:23;4.97;;;3.53;;
6725;SDS011;3400;48.506;11.692;2023-03-23T00:47:51;5.23;;;4.07;;
6725;SDS011;3400;48.506;11.692;2023-03-23T00:50:19;6.23;;;4.03;;
6725;SDS011;3400;48.506;11.692;2023-03-23T00:52:47;6.03;;;3.80;;
6725;SDS011;3400;48.506;11.692;2023-03-23T00:55:18;6.97;;;4.37;;
6725;SDS011;3400;48.506;11.692;2023-03-23T00:57:46;4.63;;;3.87;;
6725;SDS011;3400;48.506;11.692;2023-03-23T01:00:16;4.97;;;4.17;;
6725;SDS011;3400;48.506;11.692;2023-03-23T01:02:46;5.43;;;4.70;;
6725;SDS011;3400;48.506;11.692;2023-03-23T01:05:14;5.13;;;4.60;;
6725;SDS011;3400;48.506;11.692;2023-03-23T01:07:41;4.77;;;4.37;;
6725;SDS011;3400;48.506;11.692;2023-03-23T01:10:10;6.07;;;4.77;;
6725;SDS011;3400;48.506;11.692;2023-03-23T01:12:42;5.17;;;4.50;;
6725;SDS011;3400;48.506;11.692;2023-03-23T01:15:13;5.30;;;4.53;;
6725;SDS011;3400;48.506;11.692;2023-03-23T01:17:42;6.17;;;4.67;;
6725;SDS011;3400;48.506;11.692;2023-03-23T01:20:12;5.13;;;4.43;;
6725;SDS011;3400;48.506;11.692;2023-03-23T01:22:41;5.47;;;3.43;;
6725;SDS011;3400;48.506;11.692;2023-03-23T01:25:10;4.80;;;4.07;;
6725;SDS011;3400;48.506;11.692;2023-03-23T01:27:39;7.57;;;4.13;;
6725;SDS011;3400;48.506;11.692;2023-03-23T01:30:07;5.27;;;4.60;;
6725;SDS011;3400;48.506;11.692;2023-03-23T01:32:36;5.30;;;4.20;;
6725;SDS011;3400;48.506;11.692;2023-03-23T01:35:04;6.63;;;4.73;;
6725;SDS011;3400;48.506;11.692;2023-03-23T01:37:34;4.97;;;3.93;;
6725;SDS011;3400;48.506;11.692;2023-03-23T01:40:02;6.73;;;4.40;;
6725;SDS011;3400;48.506;11.692;2023-03-23T01:42:32;5.83;;;5.00;;
6725;SDS011;3400;48.506;11.692;2023-03-23T01:48:00;4.43;;;4.03;;
6725;SDS011;3400;48.506;11.692;2023-03-23T01:50:31;6.07;;;4.30;;
6725;SDS011;3400;48.506;11.692;2023-03-23T01:53:04;5.10;;;4.50;;
6725;SDS011;3400;48.506;11.692;2023-03-23T01:55:35;4.90;;;4.40;;
6725;SDS011;3400;48.506;11.692;2023-03-23T01:58:05;5.30;;;4.73;;
6725;SDS011;3400;48.506;11.692;2023-03-23T02:00:33;5.87;;;4.40;;
6725;SDS011;3400;48.506;11.692;2023-03-23T02:03:03;5.30;;;4.80;;
6725;SDS011;3400;48.506;11.692;2023-03-23T02:05:36;6.93;;;4.20;;
6725;SDS011;3400;48.506;11.692;2023-03-23T02:08:18;6.07;;;5.23;;
6725;SDS011;3400;48.506;11.692;2023-03-23T02:10:46;6.10;;;4.90;;
6725;SDS011;3400;48.506;11.692;2023-03-23T02:13:15;5.97;;;4.80;;
6725;SDS011;3400;48.506;11.692;2023-03-23T02:15:45;8.60;;;4.67;;
6725;SDS011;3400;48.506;11.692;2023-03-23T02:18:16;5.80;;;5.00;;
6725;SDS011;3400;48.506;11.692;2023-03-23T02:21:01;6.20;;;4.57;;
6725;SDS011;3400;48.506;11.692;2023-03-23T02:23:43;5.43;;;4.93;;
6725;SDS011;3400;48.506;11.692;2023-03-23T02:26:26;6.90;;;5.20;;
6725;SDS011;3400;48.506;11.692;2023-03-23T02:29:13;6.00;;;4.40;;
6725;SDS011;3400;48.506;11.692;2023-03-23T02:31:47;6.10;;;4.47;;
6725;SDS011;3400;48.506;11.692;2023-03-23T02:34:22;5.67;;;4.77;;
6725;SDS011;3400;48.506;11.692;2023-03-23T02:36:53;4.37;;;3.97;;
6725;SDS011;3400;48.506;11.692;2023-03-23T02:39:25;5.30;;;4.60;;
6725;SDS011;3400;48.506;11.692;2023-03-23T02:41:56;6.20;;;4.47;;
6725;SDS011;3400;48.506;11.692;2023-03-23T02:44:26;6.93;;;4.43;;
6725;SDS011;3400;48.506;11.692;2023-03-23T02:46:56;5.67;;;4.33;;
6725;SDS011;3400;48.506;11.692;2023-03-23T02:49:26;6.73;;;4.57;;
6725;SDS011;3400;48.506;11.692;2023-03-23T02:51:55;5.50;;;4.10;;
6725;SDS011;3400;48.506;11.692;2023-03-23T02:54:25;5.47;;;4.93;;
6725;SDS011;3400;48.506;11.692;2023-03-23T02:56:55;8.43;;;5.07;;
6725;SDS011;3400;48.506;11.692;2023-03-23T02:59:29;5.37;;;4.63;;
6725;SDS011;3400;48.506;11.692;2023-03-23T03:02:00;6.67;;;4.63;;
6725;SDS011;3400;48.506;11.692;2023-03-23T03:04:30;4.63;;;4.20;;
6725;SDS011;3400;48.506;11.692;2023-03-23T03:07:04;5.23;;;4.80;;
6725;SDS011;3400;48.506;11.692;2023-03-23T03:09:37;6.10;;;4.93;;
6725;SDS011;3400;48.506;11.692;2023-03-23T03:12:10;6.30;;;4.90;;
6725;SDS011;3400;48.506;11.692;2023-03-23T03:14:41;5.33;;;4.83;;
6725;SDS011;3400;48.506;11.692;2023-03-23T03:17:13;9.20;;;5.70;;
6725;SDS011;3400;48.506;11.692;2023-03-23T03:19:44;5.63;;;5.03;;
6725;SDS011;3400;48.506;11.692;2023-03-23T03:22:13;10.50;;;4.57;;
6725;SDS011;3400;48.506;11.692;2023-03-23T03:24:42;6.37;;;4.80;;
6725;SDS011;3400;48.506;11.692;2023-03-23T03:27:13;5.57;;;5.00;;
6725;SDS011;3400;48.506;11.692;2023-03-23T03:29:46;5.97;;;5.37;;
6725;SDS011;3400;48.506;11.692;2023-03-23T03:32:17;7.43;;;4.70;;
6725;SDS011;3400;48.506;11.692;2023-03-23T03:34:48;6.83;;;4.90;;
6725;SDS011;3400;48.506;11.692;2023-03-23T03:37:19;6.90;;;5.20;;
6725;SDS011;3400;48.506;11.692;2023-03-23T03:39:49;5.60;;;4.80;;
6725;SDS011;3400;48.506;11.692;2023-03-23T03:42:17;5.50;;;5.00;;
6725;SDS011;3400;48.506;11.692;2023-03-23T03:44:46;5.77;;;4.87;;
6725;SDS011;3400;48.506;11.692;2023-03-23T03:47:15;5.10;;;4.23;;
6725;SDS011;3400;48.506;11.692;2023-03-23T03:49:43;6.90;;;4.70;;
6725;SDS011;3400;48.506;11.692;2023-03-23T03:52:13;7.30;;;4.93;;
6725;SDS011;3400;48.506;11.692;2023-03-23T03:54:41;4.97;;;4.10;;
6725;SDS011;3400;48.506;11.692;2023-03-23T03:57:10;6.80;;;5.03;;
6725;SDS011;3400;48.506;11.692;2023-03-23T04:00:04;5.17;;;4.67;;
6725;SDS011;3400;48.506;11.692;2023-03-23T04:02:40;5.17;;;4.23;;
6725;SDS011;3400;48.506;11.692;2023-03-23T04:05:09;6.10;;;4.70;;
6725;SDS011;3400;48.506;11.692;2023-03-23T04:07:39;6.73;;;4.50;;
6725;SDS011;3400;48.506;11.692;2023-03-23T04:10:08;8.07;;;4.90;;
6725;SDS011;3400;48.506;11.692;2023-03-23T04:12:38;5.13;;;3.90;;
6725;SDS011;3400;48.506;11.692;2023-03-23T04:15:18;6.53;;;4.67;;
6725;SDS011;3400;48.506;11.692;2023-03-23T04:17:47;7.57;;;4.80;;
6725;SDS011;3400;48.506;11.692;2023-03-23T04:20:15;5.43;;;4.83;;
6725;SDS011;3400;48.506;11.692;2023-03-23T04:22:49;4.47;;;4.07;;
6725;SDS011;3400;48.506;11.692;2023-03-23T04:25:19;4.20;;;3.80;;
6725;SDS011;3400;48.506;11.692;2023-03-23T04:27:49;6.90;;;4.97;;
6725;SDS011;3400;48.506;11.692;2023-03-23T04:30:24;5.20;;;4.70;;
6725;SDS011;3400;48.506;11.692;2023-03-23T04:33:08;4.40;;;4.00;;
6725;SDS011;3400;48.506;11.692;2023-03-23T04:35:43;5.50;;;4.60;;
6725;SDS011;3400;48.506;11.692;2023-03-23T04:38:23;5.33;;;3.87;;
6725;SDS011;3400;48.506;11.692;2023-03-23T04:40:58;4.77;;;4.37;;
6725;SDS011;3400;48.506;11.692;2023-03-23T04:43:43;5.17;;;4.40;;
6725;SDS011;3400;48.506;11.692;2023-03-23T04:46:25;5.57;;;4.60;;
6725;SDS011;3400;48.506;11.692;2023-03-23T04:48:57;11.50;;;5.10;;
6725;SDS011;3400;48.506;11.692;2023-03-23T04:51:30;6.57;;;4.60;;
6725;SDS011;3400;48.506;11.692;2023-03-23T04:54:11;5.13;;;4.63;;
6725;SDS011;3400;48.506;11.692;2023-03-23T04:56:42;5.20;;;4.43;;
6725;SDS011;3400;48.506;11.692;2023-03-23T04:59:13;5.83;;;4.60;;
6725;SDS011;3400;48.506;11.692;2023-03-23T05:01:51;10.13;;;4.43;;
6725;SDS011;3400;48.506;11.692;2023-03-23T05:04:20;6.13;;;4.60;;
6725;SDS011;3400;48.506;11.692;2023-03-23T05:07:17;4.97;;;4.33;;
6725;SDS011;3400;48.506;11.692;2023-03-23T05:09:49;4.60;;;4.20;;
6725;SDS011;3400;48.506;11.692;2023-03-23T05:12:21;4.30;;;3.90;;
6725;SDS011;3400;48.506;11.692;2023-03-23T05:14:57;5.60;;;4.40;;
6725;SDS011;3400;48.506;11.692;2023-03-23T05:17:27;4.63;;;4.13;;
6725;SDS011;3400;48.506;11.692;2023-03-23T05:19:57;4.90;;;4.30;;
6725;SDS011;3400;48.506;11.692;2023-03-23T05:22:39;5.37;;;3.80;;
6725;SDS011;3400;48.506;11.692;2023-03-23T05:25:10;5.07;;;4.47;;
6725;SDS011;3400;48.506;11.692;2023-03-23T05:27:42;7.97;;;4.70;;
6725;SDS011;3400;48.506;11.692;2023-03-23T05:30:28;4.57;;;4.17;;
6725;SDS011;3400;48.506;11.692;2023-03-23T05:32:57;4.60;;;4.17;;
6725;SDS011;3400;48.506;11.692;2023-03-23T05:35:45;6.93;;;4.50;;
6725;SDS011;3400;48.506;11.692;2023-03-23T05:38:15;6.47;;;4.47;;
6725;SDS011;3400;48.506;11.692;2023-03-23T05:40:46;4.73;;;4.27;;
6725;SDS011;3400;48.506;11.692;2023-03-23T05:43:17;6.90;;;4.47;;
6725;SDS011;3400;48.506;11.692;2023-03-23T05:45:56;4.07;;;3.77;;
6725;SDS011;3400;48.506;11.692;2023-03-23T05:48:24;6.47;;;4.50;;
6725;SDS011;3400;48.506;11.692;2023-03-23T05:50:52;8.27;;;4.77;;
6725;SDS011;3400;48.506;11.692;2023-03-23T05:53:22;4.90;;;4.50;;
6725;SDS011;3400;48.506;11.692;2023-03-23T05:56:03;5.43;;;3.90;;
6725;SDS011;3400;48.506;11.692;2023-03-23T05:58:53;5.57;;;4.67;;
6725;SDS011;3400;48.506;11.692;2023-03-23T06:01:22;5.87;;;4.03;;
6725;SDS011;3400;48.506;11.692;2023-03-23T06:03:50;7.63;;;4.70;;
6725;SDS011;3400;48.506;11.692;2023-03-23T06:06:23;6.23;;;4.87;;
6725;SDS011;3400;48.506;11.692;2023-03-23T06:08:56;5.30;;;4.80;;
6725;SDS011;3400;48.506;11.692;2023-03-23T06:11:39;4.20;;;3.80;;
6725;SDS011;3400;48.506;11.692;2023-03-23T06:14:27;6.90;;;4.83;;
6725;SDS011;3400;48.506;11.692;2023-03-23T06:16:55;5.33;;;4.67;;
6725;SDS011;3400;48.506;11.692;2023-03-23T06:19:23;7.53;;;4.80;;
6725;SDS011;3400;48.506;11.692;2023-03-23T06:22:18;6.17;;;5.00;;
6725;SDS011;3400;48.506;11.692;2023-03-23T06:25:05;5.20;;;4.70;;
6725;SDS011;3400;48.506;11.692;2023-03-23T06:27:39;8.20;;;4.87;;
6725;SDS011;3400;48.506;11.692;2023-03-23T06:30:08;7.23;;;4.40;;
6725;SDS011;3400;48.506;11.692;2023-03-23T06:32:37;5.33;;;4.40;;
6725;SDS011;3400;48.506;11.692;2023-03-23T06:35:10;5.37;;;4.00;;
6725;SDS011;3400;48.506;11.692;2023-03-23T06:38:00;4.20;;;3.80;;
6725;SDS011;3400;48.506;11.692;2023-03-23T06:40:36;5.10;;;4.60;;
6725;SDS011;3400;48.506;11.692;2023-03-23T06:43:06;5.50;;;4.07;;
6725;SDS011;3400;48.506;11.692;2023-03-23T06:45:46;4.23;;;3.83;;
6725;SDS011;3400;48.506;11.692;2023-03-23T06:48:39;4.57;;;4.17;;
6725;SDS011;3400;48.506;11.692;2023-03-23T06:51:10;4.90;;;3.67;;
6725;SDS011;3400;48.506;11.692;2023-03-23T06:53:41;6.27;;;3.80;;
6725;SDS011;3400;48.506;11.692;2023-03-23T06:56:12;4.13;;;3.73;;
6725;SDS011;3400;48.506;11.692;2023-03-23T06:58:43;4.70;;;4.03;;
6725;SDS011;3400;48.506;11.692;2023-03-23T07:01:12;5.57;;;3.93;;
6725;SDS011;3400;48.506;11.692;2023-03-23T07:03:47;4.83;;;4.17;;
6725;SDS011;3400;48.506;11.692;2023-03-23T07:06:20;4.30;;;3.90;;
6725;SDS011;3400;48.506;11.692;2023-03-23T07:08:55;5.80;;;4.27;;
6725;SDS011;3400;48.506;11.692;2023-03-23T07:11:26;7.37;;;4.07;;
6725;SDS011;3400;48.506;11.692;2023-03-23T07:13:58;5.70;;;4.27;;
6725;SDS011;3400;48.506;11.692;2023-03-23T07:16:26;3.60;;;3.30;;
6725;SDS011;3400;48.506;11.692;2023-03-23T07:18:55;4.73;;;3.00;;
6725;SDS011;3400;48.506;11.692;2023-03-23T07:21:23;4.43;;;3.87;;
6725;SDS011;3400;48.506;11.692;2023-03-23T07:23:51;8.67;;;3.23;;
6725;SDS011;3400;48.506;11.692;2023-03-23T07:26:39;3.83;;;3.43;;
6725;SDS011;3400;48.506;11.692;2023-03-23T07:29:09;5.30;;;3.30;;
6725;SDS011;3400;48.506;11.692;2023-03-23T07:31:41;3.87;;;3.40;;
6725;SDS011;3400;48.506;11.692;2023-03-23T07:34:09;3.93;;;2.87;;
6725;SDS011;3400;48.506;11.692;2023-03-23T07:36:49;3.87;;;2.87;;
6725;SDS011;3400;48.506;11.692;2023-03-23T07:39:17;7.13;;;3.30;;
6725;SDS011;3400;48.506;11.692;2023-03-23T07:41:46;3.93;;;3.10;;
6725;SDS011;3400;48.506;11.692;2023-03-23T07:44:22;3.93;;;3.27;;
6725;SDS011;3400;48.506;11.692;2023-03-23T07:46:51;5.57;;;3.67;;
6725;SDS011;3400;48.506;11.692;2023-03-23T07:49:28;3.80;;;3.20;;
6725;SDS011;3400;48.506;11.692;2023-03-23T07:52:07;4.43;;;3.30;;
6725;SDS011;3400;48.506;11.692;2023-03-23T07:54:36;6.97;;;3.37;;
6725;SDS011;3400;48.506;11.692;2023-03-23T07:57:14;7.53;;;3.37;;
6725;SDS011;3400;48.506;11.692;2023-03-23T07:59:49;4.60;;;3.30;;
6725;SDS011;3400;48.506;11.692;2023-03-23T08:02:17;5.13;;;3.23;;
6725;SDS011;3400;48.506;11.692;2023-03-23T08:05:11;4.93;;;3.23;;
6725;SDS011;3400;48.506;11.692;2023-03-23T08:07:57;4.33;;;3.20;;
6725;SDS011;3400;48.506;11.692;2023-03-23T08:10:45;5.87;;;3.30;;
6725;SDS011;3400;48.506;11.692;2023-03-23T08:13:32;3.67;;;3.30;;
6725;SDS011;3400;48.506;11.692;2023-03-23T08:16:24;8.07;;;3.40;;
6725;SDS011;3400;48.506;11.692;2023-03-23T08:19:11;4.37;;;2.83;;
6725;SDS011;3400;48.506;11.692;2023-03-23T08:21:58;7.10;;;4.27;;
6725;SDS011;3400;48.506;11.692;2023-03-23T08:24:51;5.77;;;3.90;;
6725;SDS011;3400;48.506;11.692;2023-03-23T08:27:29;9.27;;;3.97;;
6725;SDS011;3400;48.506;11.692;2023-03-23T08:30:27;10.17;;;3.57;;
6725;SDS011;3400;48.506;11.692;2023-03-23T08:33:17;3.47;;;3.07;;
6725;SDS011;3400;48.506;11.692;2023-03-23T08:36:05;6.40;;;3.63;;
6725;SDS011;3400;48.506;11.692;2023-03-23T08:38:53;6.90;;;3.17;;
6725;SDS011;3400;48.506;11.692;2023-03-23T08:41:47;4.77;;;3.53;;
6725;SDS011;3400;48.506;11.692;2023-03-23T08:44:21;4.70;;;3.67;;
6725;SDS011;3400;48.506;11.692;2023-03-23T08:47:02;3.40;;;3.07;;
6725;SDS011;3400;48.506;11.692;2023-03-23T08:49:50;7.73;;;3.50;;
6725;SDS011;3400;48.506;11.692;2023-03-23T08:52:44;5.20;;;3.23;;
6725;SDS011;3400;48.506;11.692;2023-03-23T08:55:31;4.77;;;2.60;;
6725;SDS011;3400;48.506;11.692;2023-03-23T08:58:13;5.27;;;3.20;;
6725;SDS011;3400;48.506;11.692;2023-03-23T09:00:56;9.77;;;3.37;;
6725;SDS011;3400;48.506;11.692;2023-03-23T09:03:59;8.47;;;3.10;;
6725;SDS011;3400;48.506;11.692;2023-03-23T09:06:47;7.83;;;3.00;;
6725;SDS011;3400;48.506;11.692;2023-03-23T09:09:15;3.43;;;2.60;;
6725;SDS011;3400;48.506;11.692;2023-03-23T09:11:43;2.70;;;2.47;;
6725;SDS011;3400;48.506;11.692;2023-03-23T09:14:11;8.33;;;2.67;;
6725;SDS011;3400;48.506;11.692;2023-03-23T09:16:39;4.67;;;2.23;;
6725;SDS011;3400;48.506;11.692;2023-03-23T09:19:07;2.73;;;2.47;;
6725;SDS011;3400;48.506;11.692;2023-03-23T09:21:35;2.50;;;2.30;;
6725;SDS011;3400;48.506;11.692;2023-03-23T09:24:05;2.57;;;2.37;;
6725;SDS011;3400;48.506;11.692;2023-03-23T09:26:32;3.63;;;2.27;;
6725;SDS011;3400;48.506;11.692;2023-03-23T09:29:00;4.07;;;2.33;;
6725;SDS011;3400;48.506;11.692;2023-03-23T09:31:28;2.70;;;2.37;;
6725;SDS011;3400;48.506;11.692;2023-03-23T09:33:57;2.87;;;2.20;;
6725;SDS011;3400;48.506;11.692;2023-03-23T09:36:26;8.60;;;2.50;;
6725;SDS011;3400;48.506;11.692;2023-03-23T09:38:57;2.93;;;2.13;;
6725;SDS011;3400;48.506;11.692;2023-03-23T09:41:39;2.73;;;2.53;;
6725;SDS011;3400;48.506;11.692;2023-03-23T09:44:12;2.50;;;2.30;;
6725;SDS011;3400;48.506;11.692;2023-03-23T09:46:47;3.80;;;1.80;;
6725;SDS011;3400;48.506;11.692;2023-03-23T09:49:18;3.73;;;2.10;;
6725;SDS011;3400;48.506;11.692;2023-03-23T09:51:50;2.87;;;2.00;;
6725;SDS011;3400;48.506;11.692;2023-03-23T09:54:20;4.20;;;2.17;;
6725;SDS011;3400;48.506;11.692;2023-03-23T09:56:50;2.50;;;2.17;;
6725;SDS011;3400;48.506;11.692;2023-03-23T09:59:20;2.13;;;1.93;;
6725;SDS011;3400;48.506;11.692;2023-03-23T10:01:50;2.60;;;1.80;;
6725;SDS011;3400;48.506;11.692;2023-03-23T10:04:23;3.67;;;2.10;;
6725;SDS011;3400;48.506;11.692;2023-03-23T10:06:52;4.30;;;1.93;;
6725;SDS011;3400;48.506;11.692;2023-03-23T10:09:20;1.87;;;1.67;;
6725;SDS011;3400;48.506;11.692;2023-03-23T10:11:56;4.10;;;2.00;;
6725;SDS011;3400;48.506;11.692;2023-03-23T10:14:40;2.63;;;1.70;;
6725;SDS011;3400;48.506;11.692;2023-03-23T10:17:13;3.03;;;2.00;;
6725;SDS011;3400;48.506;11.692;2023-03-23T10:19:45;3.03;;;2.10;;
6725;SDS011;3400;48.506;11.692;2023-03-23T10:22:16;4.73;;;1.80;;
6725;SDS011;3400;48.506;11.692;2023-03-23T10:24:49;4.17;;;2.07;;
6725;SDS011;3400;48.506;11.692;2023-03-23T10:27:22;2.87;;;1.80;;
6725;SDS011;3400;48.506;11.692;2023-03-23T10:29:53;3.10;;;1.90;;
6725;SDS011;3400;48.506;11.692;2023-03-23T10:32:36;3.27;;;1.90;;
6725;SDS011;3400;48.506;11.692;2023-03-23T10:35:06;2.27;;;2.07;;
6725;SDS011;3400;48.506;11.692;2023-03-23T10:37:38;1.80;;;1.70;;
6725;SDS011;3400;48.506;11.692;2023-03-23T10:40:12;5.23;;;2.10;;
6725;SDS011;3400;48.506;11.692;2023-03-23T10:42:42;2.20;;;1.60;;
6725;SDS011;3400;48.506;11.692;2023-03-23T10:45:12;2.23;;;1.70;;
6725;SDS011;3400;48.506;11.692;2023-03-23T10:47:42;1.90;;;1.80;;
6725;SDS011;3400;48.506;11.692;2023-03-23T10:50:11;3.77;;;1.73;;
6725;SDS011;3400;48.506;11.692;2023-03-23T10:52:41;2.27;;;1.40;;
6725;SDS011;3400;48.506;11.692;2023-03-23T10:55:11;1.80;;;1.70;;
6725;SDS011;3400;48.506;11.692;2023-03-23T10:57:40;3.87;;;1.50;;
6725;SDS011;3400;48.506;11.692;2023-03-23T11:00:16;5.87;;;1.40;;
6725;SDS011;3400;48.506;11.692;2023-03-23T11:02:45;1.93;;;1.83;;
6725;SDS011;3400;48.506;11.692;2023-03-23T11:05:16;1.53;;;1.43;;
6725;SDS011;3400;48.506;11.692;2023-03-23T11:07:48;2.50;;;1.10;;
6725;SDS011;3400;48.506;11.692;2023-03-23T11:10:20;2.70;;;1.30;;
6725;SDS011;3400;48.506;11.692;2023-03-23T11:12:49;2.03;;;1.20;;
6725;SDS011;3400;48.506;11.692;2023-03-23T11:15:29;2.17;;;1.50;;
6725;SDS011;3400;48.506;11.692;2023-03-23T11:17:59;1.60;;;1.50;;
6725;SDS011;3400;48.506;11.692;2023-03-23T11:20:28;1.40;;;1.30;;
6725;SDS011;3400;48.506;11.692;2023-03-23T11:22:56;1.17;;;1.10;;
6725;SDS011;3400;48.506;11.692;2023-03-23T11:25:24;2.63;;;1.83;;
6725;SDS011;3400;48.506;11.692;2023-03-23T11:27:53;3.43;;;1.60;;
6725;SDS011;3400;48.506;11.692;2023-03-23T11:30:22;1.40;;;1.30;;
6725;SDS011;3400;48.506;11.692;2023-03-23T11:32:52;2.47;;;1.50;;
6725;SDS011;3400;48.506;11.692;2023-03-23T11:35:22;1.23;;;1.20;;
6725;SDS011;3400;48.506;11.692;2023-03-23T11:37:52;1.63;;;1.33;;
6725;SDS011;3400;48.506;11.692;2023-03-23T11:40:21;1.63;;;1.50;;
6725;SDS011;3400;48.506;11.692;2023-03-23T11:42:56;1.70;;;1.60;;
6725;SDS011;3400;48.506;11.692;2023-03-23T11:45:30;1.60;;;1.50;;
6725;SDS011;3400;48.506;11.692;2023-03-23T11:48:01;1.67;;;1.50;;
6725;SDS011;3400;48.506;11.692;2023-03-23T11:50:34;3.57;;;1.47;;
6725;SDS011;3400;48.506;11.692;2023-03-23T11:53:06;1.40;;;1.30;;
6725;SDS011;3400;48.506;11.692;2023-03-23T11:55:49;1.87;;;1.77;;
6725;SDS011;3400;48.506;11.692;2023-03-23T11:58:19;2.50;;;1.93;;
6725;SDS011;3400;48.506;11.692;2023-03-23T12:00:48;1.90;;;1.80;;
6725;SDS011;3400;48.506;11.692;2023-03-23T12:03:18;1.83;;;1.50;;
6725;SDS011;3400;48.506;11.692;2023-03-23T12:05:47;2.40;;;1.50;;
6725;SDS011;3400;48.506;11.692;2023-03-23T12:08:22;2.47;;;1.50;;
6725;SDS011;3400;48.506;11.692;2023-03-23T12:10:53;1.30;;;1.30;;
6725;SDS011;3400;48.506;11.692;2023-03-23T12:13:39;2.03;;;1.73;;
6725;SDS011;3400;48.506;11.692;2023-03-23T12:16:21;1.70;;;1.60;;
6725;SDS011;3400;48.506;11.692;2023-03-23T12:18:54;5.50;;;1.77;;
6725;SDS011;3400;48.506;11.692;2023-03-23T12:21:27;2.23;;;1.60;;
6725;SDS011;3400;48.506;11.692;2023-03-23T12:23:59;1.70;;;1.57;;
6725;SDS011;3400;48.506;11.692;2023-03-23T12:26:30;2.03;;;1.87;;
6725;SDS011;3400;48.506;11.692;2023-03-23T12:31:59;3.23;;;1.93;;
6725;SDS011;3400;48.506;11.692;2023-03-23T12:34:33;4.03;;;1.87;;
6725;SDS011;3400;48.506;11.692;2023-03-23T12:37:10;2.63;;;1.47;;
6725;SDS011;3400;48.506;11.692;2023-03-23T12:39:50;2.03;;;1.50;;
6725;SDS011;3400;48.506;11.692;2023-03-23T12:42:22;1.97;;;1.57;;
6725;SDS011;3400;48.506;11.692;2023-03-23T12:44:53;2.60;;;1.93;;
6725;SDS011;3400;48.506;11.692;2023-03-23T12:47:28;1.93;;;1.60;;
6725;SDS011;3400;48.506;11.692;2023-03-23T12:49:59;1.80;;;1.40;;
6725;SDS011;3400;48.506;11.692;2023-03-23T12:52:31;1.27;;;1.17;;
6725;SDS011;3400;48.506;11.692;2023-03-23T12:55:00;1.77;;;1.60;;
6725;SDS011;3400;48.506;11.692;2023-03-23T12:57:31;3.23;;;2.10;;
6725;SDS011;3400;48.506;11.692;2023-03-23T13:00:02;3.10;;;1.77;;
6725;SDS011;3400;48.506;11.692;2023-03-23T13:02:39;2.97;;;1.80;;
6725;SDS011;3400;48.506;11.692;2023-03-23T13:05:10;2.10;;;1.40;;
6725;SDS011;3400;48.506;11.692;2023-03-23T13:07:42;4.50;;;1.50;;
6725;SDS011;3400;48.506;11.692;2023-03-23T13:10:12;1.10;;;1.10;;
6725;SDS011;3400;48.506;11.692;2023-03-23T13:12:45;3.57;;;1.60;;
6725;SDS011;3400;48.506;11.692;2023-03-23T13:15:18;1.73;;;1.40;;
6725;SDS011;3400;48.506;11.692;2023-03-23T13:17:51;2.43;;;1.23;;
6725;SDS011;3400;48.506;11.692;2023-03-23T13:20:33;2.13;;;1.70;;
6725;SDS011;3400;48.506;11.692;2023-03-23T13:23:04;1.43;;;1.40;;
6725;SDS011;3400;48.506;11.692;2023-03-23T13:25:39;1.97;;;1.30;;
6725;SDS011;3400;48.506;11.692;2023-03-23T13:28:12;2.47;;;1.60;;
6725;SDS011;3400;48.506;11.692;2023-03-23T13:30:52;1.97;;;1.50;;
6725;SDS011;3400;48.506;11.692;2023-03-23T13:33:20;1.70;;;1.60;;
6725;SDS011;3400;48.506;11.692;2023-03-23T13:35:49;1.93;;;1.37;;
6725;SDS011;3400;48.506;11.692;2023-03-23T13:38:19;1.50;;;1.40;;
6725;SDS011;3400;48.506;11.692;2023-03-23T13:40:47;2.97;;;1.40;;
6725;SDS011;3400;48.506;11.692;2023-03-23T13:43:24;1.80;;;1.60;;
6725;SDS011;3400;48.506;11.692;2023-03-23T13:45:53;2.77;;;1.43;;
6725;SDS011;3400;48.506;11.692;2023-03-23T13:48:23;1.87;;;1.57;;
6725;SDS011;3400;48.506;11.692;2023-03-23T13:50:57;3.37;;;1.80;;
6725;SDS011;3400;48.506;11.692;2023-03-23T13:53:26;1.83;;;1.57;;
6725;SDS011;3400;48.506;11.692;2023-03-23T13:56:04;2.40;;;1.80;;
6725;SDS011;3400;48.506;11.692;2023-03-23T13:58:43;2.17;;;1.70;;
6725;SDS011;3400;48.506;11.692;2023-03-23T14:01:13;1.77;;;1.67;;
6725;SDS011;3400;48.506;11.692;2023-03-23T14:03:46;2.87;;;1.50;;
6725;SDS011;3400;48.506;11.692;2023-03-23T14:06:19;3.43;;;1.97;;
6725;SDS011;3400;48.506;11.692;2023-03-23T14:09:04;2.70;;;1.57;;
6725;SDS011;3400;48.506;11.692;2023-03-23T14:11:32;1.93;;;1.50;;
6725;SDS011;3400;48.506;11.692;2023-03-23T14:14:12;1.60;;;1.43;;
6725;SDS011;3400;48.506;11.692;2023-03-23T14:16:42;1.60;;;1.50;;
6725;SDS011;3400;48.506;11.692;2023-03-23T14:19:15;1.87;;;1.43;;
6725;SDS011;3400;48.506;11.692;2023-03-23T14:21:50;2.20;;;1.60;;
6725;SDS011;3400;48.506;11.692;2023-03-23T14:24:20;2.17;;;1.50;;
6725;SDS011;3400;48.506;11.692;2023-03-23T14:26:50;3.13;;;1.50;;
6725;SDS011;3400;48.506;11.692;2023-03-23T14:29:19;2.33;;;1.90;;
6725;SDS011;3400;48.506;11.692;2023-03-23T14:31:50;3.77;;;1.57;;
6725;SDS011;3400;48.506;11.692;2023-03-23T14:34:20;2.03;;;1.43;;
6725;SDS011;3400;48.506;11.692;2023-03-23T14:36:50;2.83;;;1.60;;
6725;SDS011;3400;48.506;11.692;2023-03-23T14:39:20;1.30;;;1.20;;
6725;SDS011;3400;48.506;11.692;2023-03-23T14:41:49;4.17;;;1.77;;
6725;SDS011;3400;48.506;11.692;2023-03-23T14:44:20;2.10;;;1.90;;
6725;SDS011;3400;48.506;11.692;2023-03-23T14:46:49;1.53;;;1.43;;
6725;SDS011;3400;48.506;11.692;2023-03-23T14:49:18;1.90;;;1.63;;
6725;SDS011;3400;48.506;11.692;2023-03-23T14:51:47;5.87;;;1.63;;
6725;SDS011;3400;48.506;11.692;2023-03-23T14:54:18;2.00;;;1.43;;
6725;SDS011;3400;48.506;11.692;2023-03-23T14:56:48;2.50;;;1.67;;
6725;SDS011;3400;48.506;11.692;2023-03-23T14:59:16;2.37;;;1.83;;
6725;SDS011;3400;48.506;11.692;2023-03-23T15:01:45;4.43;;;2.67;;
6725;SDS011;3400;48.506;11.692;2023-03-23T15:04:15;4.77;;;2.57;;
6725;SDS011;3400;48.506;11.692;2023-03-23T15:06:46;2.47;;;1.80;;
6725;SDS011;3400;48.506;11.692;2023-03-23T15:09:18;4.27;;;3.67;;
6725;SDS011;3400;48.506;11.692;2023-03-23T15:11:51;1.80;;;1.70;;
6725;SDS011;3400;48.506;11.692;2023-03-23T15:14:21;4.97;;;3.20;;
6725;SDS011;3400;48.506;11.692;2023-03-23T15:16:49;2.07;;;1.60;;
6725;SDS011;3400;48.506;11.692;2023-03-23T15:19:18;2.17;;;1.87;;
6725;SDS011;3400;48.506;11.692;2023-03-23T15:21:48;1.93;;;1.50;;
6725;SDS011;3400;48.506;11.692;2023-03-23T15:24:23;2.60;;;1.73;;
6725;SDS011;3400;48.506;11.692;2023-03-23T15:26:52;1.77;;;1.50;;
6725;SDS011;3400;48.506;11.692;2023-03-23T15:29:21;1.63;;;1.53;;
6725;SDS011;3400;48.506;11.692;2023-03-23T15:31:50;3.43;;;1.60;;
6725;SDS011;3400;48.506;11.692;2023-03-23T15:34:23;1.30;;;1.20;;
6725;SDS011;3400;48.506;11.692;2023-03-23T15:36:54;1.93;;;1.60;;
6725;SDS011;3400;48.506;11.692;2023-03-23T15:39:24;2.47;;;1.63;;
6725;SDS011;3400;48.506;11.692;2023-03-23T15:41:53;2.00;;;1.47;;